sensor_id;sensor_type;location;lat;lon;timestamp;pressure;altitude;pressure_sealevel;temperature;humidity
19884;BME280;10104;50.732;10.174;2023-07-16T00:01:41;97422.16;;;23.05;89.79
19884;BME280;10104;50.732;10.174;2023-07-16T00:04:03;97415.91;;;23.14;88.33
19884;BME280;10104;50.732;10.174;2023-07-16T00:06:25;97420.03;;;22.96;89.44
19884;BME280;10104;50.732;10.174;2023-07-16T00:08:46;97429.06;;;22.77;91.46
19884;BME280;10104;50.732;10.174;2023-07-16T00:11:08;97441.56;;;22.52;92.24
19884;BME280;10104;50.732;10.174;2023-07-16T00:13:29;97420.22;;;22.56;92.29
19884;BME280;10104;50.732;10.174;2023-07-16T00:15:51;97402.97;;;22.52;92.42
19884;BME280;10104;50.732;10.174;2023-07-16T00:18:12;97403.72;;;22.63;92.05
19884;BME280;10104;50.732;10.174;2023-07-16T00:20:34;97423.47;;;22.58;92.08
19884;BME280;10104;50.732;10.174;2023-07-16T00:22:55;97431.25;;;22.59;91.54
19884;BME280;10104;50.732;10.174;2023-07-16T00:25:18;97452.31;;;22.63;91.20
19884;BME280;10104;50.732;10.174;2023-07-16T00:27:40;97456.94;;;22.57;91.58
19884;BME280;10104;50.732;10.174;2023-07-16T00:30:02;97450.50;;;22.43;93.05
19884;BME280;10104;50.732;10.174;2023-07-16T00:32:24;97437.56;;;22.35;93.76
19884;BME280;10104;50.732;10.174;2023-07-16T00:34:46;97451.13;;;22.04;95.37
19884;BME280;10104;50.732;10.174;2023-07-16T00:37:07;97454.88;;;21.93;96.53
19884;BME280;10104;50.732;10.174;2023-07-16T00:39:29;97456.78;;;21.83;97.45
19884;BME280;10104;50.732;10.174;2023-07-16T00:41:51;97472.69;;;21.89;97.42
19884;BME280;10104;50.732;10.174;2023-07-16T00:44:12;97473.75;;;21.68;98.66
19884;BME280;10104;50.732;10.174;2023-07-16T00:46:34;97474.03;;;21.61;99.53
19884;BME280;10104;50.732;10.174;2023-07-16T00:48:56;97488.81;;;21.44;100.00
19884;BME280;10104;50.732;10.174;2023-07-16T00:51:18;97500.13;;;21.30;100.00
19884;BME280;10104;50.732;10.174;2023-07-16T00:53:41;97488.53;;;21.20;100.00
19884;BME280;10104;50.732;10.174;2023-07-16T00:56:03;97499.28;;;21.20;100.00
19884;BME280;10104;50.732;10.174;2023-07-16T00:58:25;97494.22;;;21.38;100.00
19884;BME280;10104;50.732;10.174;2023-07-16T01:00:47;97484.00;;;21.41;100.00
19884;BME280;10104;50.732;10.174;2023-07-16T01:03:13;97486.03;;;21.13;100.00
19884;BME280;10104;50.732;10.174;2023-07-16T01:08:09;97504.34;;;21.06;100.00
19884;BME280;10104;50.732;10.174;2023-07-16T01:10:32;97509.44;;;20.97;100.00
19884;BME280;10104;50.732;10.174;2023-07-16T01:12:55;97508.56;;;20.87;100.00
19884;BME280;10104;50.732;10.174;2023-07-16T01:15:17;97496.50;;;21.05;100.00
19884;BME280;10104;50.732;10.174;2023-07-16T01:17:38;97489.25;;;21.05;100.00
19884;BME280;10104;50.732;10.174;2023-07-16T01:20:01;97469.63;;;21.15;100.00
19884;BME280;10104;50.732;10.174;2023-07-16T01:30:23;97428.22;;;21.56;100.00
19884;BME280;10104;50.732;10.174;2023-07-16T01:32:46;97408.28;;;21.57;100.00
19884;BME280;10104;50.732;10.174;2023-07-16T01:35:08;97396.66;;;21.67;100.00
19884;BME280;10104;50.732;10.174;2023-07-16T01:37:32;97396.69;;;21.72;99.83
19884;BME280;10104;50.732;10.174;2023-07-16T01:39:53;97413.38;;;21.79;98.48
19884;BME280;10104;50.732;10.174;2023-07-16T01:42:15;97416.63;;;21.56;98.77
19884;BME280;10104;50.732;10.174;2023-07-16T01:44:36;97405.84;;;21.61;98.67
19884;BME280;10104;50.732;10.174;2023-07-16T01:47:20;97414.47;;;21.63;98.54
19884;BME280;10104;50.732;10.174;2023-07-16T01:49:44;97427.41;;;21.46;99.82
19884;BME280;10104;50.732;10.174;2023-07-16T01:52:07;97423.91;;;21.35;100.00
19884;BME280;10104;50.732;10.174;2023-07-16T01:54:29;97385.38;;;21.29;100.00
19884;BME280;10104;50.732;10.174;2023-07-16T01:56:50;97398.88;;;21.34;100.00
19884;BME280;10104;50.732;10.174;2023-07-16T01:59:12;97445.41;;;21.10;99.66
19884;BME280;10104;50.732;10.174;2023-07-16T02:01:33;97478.97;;;20.87;100.00
19884;BME280;10104;50.732;10.174;2023-07-16T02:03:55;97497.25;;;20.80;100.00
19884;BME280;10104;50.732;10.174;2023-07-16T02:06:17;97485.38;;;20.76;100.00
19884;BME280;10104;50.732;10.174;2023-07-16T02:08:39;97440.50;;;20.96;100.00
19884;BME280;10104;50.732;10.174;2023-07-16T02:11:00;97462.56;;;20.88;100.00
19884;BME280;10104;50.732;10.174;2023-07-16T02:13:22;97450.16;;;20.92;99.96
19884;BME280;10104;50.732;10.174;2023-07-16T02:15:44;97387.47;;;21.12;98.77
19884;BME280;10104;50.732;10.174;2023-07-16T02:18:06;97380.78;;;21.15;96.44
19884;BME280;10104;50.732;10.174;2023-07-16T02:20:27;97472.53;;;20.93;97.35
19884;BME280;10104;50.732;10.174;2023-07-16T02:22:49;97518.97;;;20.63;99.36
19884;BME280;10104;50.732;10.174;2023-07-16T02:25:10;97509.78;;;20.54;100.00
19884;BME280;10104;50.732;10.174;2023-07-16T02:27:32;97497.19;;;20.65;99.58
19884;BME280;10104;50.732;10.174;2023-07-16T02:29:54;97500.13;;;20.68;99.36
19884;BME280;10104;50.732;10.174;2023-07-16T02:32:15;97513.34;;;20.70;98.91
19884;BME280;10104;50.732;10.174;2023-07-16T02:34:37;97512.44;;;20.49;99.43
19884;BME280;10104;50.732;10.174;2023-07-16T02:36:58;97515.91;;;20.44;99.31
19884;BME280;10104;50.732;10.174;2023-07-16T02:39:20;97523.00;;;20.24;97.00
19884;BME280;10104;50.732;10.174;2023-07-16T02:41:41;97520.59;;;20.27;98.67
19884;BME280;10104;50.732;10.174;2023-07-16T02:44:06;97533.97;;;20.12;97.62
19884;BME280;10104;50.732;10.174;2023-07-16T02:46:27;97528.03;;;20.10;97.67
19884;BME280;10104;50.732;10.174;2023-07-16T02:48:49;97527.16;;;19.99;98.06
19884;BME280;10104;50.732;10.174;2023-07-16T02:51:11;97533.91;;;20.07;99.02
19884;BME280;10104;50.732;10.174;2023-07-16T02:53:32;97542.25;;;20.05;98.71
19884;BME280;10104;50.732;10.174;2023-07-16T02:55:54;97546.13;;;20.25;98.42
19884;BME280;10104;50.732;10.174;2023-07-16T02:58:15;97543.16;;;20.21;97.33
19884;BME280;10104;50.732;10.174;2023-07-16T03:00:37;97561.72;;;20.23;97.92
19884;BME280;10104;50.732;10.174;2023-07-16T03:02:59;97573.31;;;20.28;96.13
19884;BME280;10104;50.732;10.174;2023-07-16T03:05:21;97571.66;;;20.22;96.87
19884;BME280;10104;50.732;10.174;2023-07-16T03:07:43;97579.13;;;20.15;97.06
19884;BME280;10104;50.732;10.174;2023-07-16T03:10:04;97573.97;;;20.08;96.40
19884;BME280;10104;50.732;10.174;2023-07-16T03:12:26;97582.28;;;20.07;96.42
19884;BME280;10104;50.732;10.174;2023-07-16T03:14:49;97587.34;;;19.98;96.67
19884;BME280;10104;50.732;10.174;2023-07-16T03:17:12;97578.16;;;19.94;95.87
19884;BME280;10104;50.732;10.174;2023-07-16T03:19:33;97591.75;;;19.83;95.07
19884;BME280;10104;50.732;10.174;2023-07-16T03:21:55;97583.34;;;19.74;95.34
19884;BME280;10104;50.732;10.174;2023-07-16T03:24:16;97588.44;;;19.75;95.32
19884;BME280;10104;50.732;10.174;2023-07-16T03:26:38;97595.41;;;19.71;95.87
19884;BME280;10104;50.732;10.174;2023-07-16T03:28:59;97597.53;;;19.69;95.97
19884;BME280;10104;50.732;10.174;2023-07-16T03:31:21;97622.22;;;19.66;96.50
19884;BME280;10104;50.732;10.174;2023-07-16T03:33:43;97611.28;;;19.73;96.01
19884;BME280;10104;50.732;10.174;2023-07-16T03:36:04;97622.47;;;19.65;96.53
19884;BME280;10104;50.732;10.174;2023-07-16T03:38:26;97630.19;;;19.56;95.85
19884;BME280;10104;50.732;10.174;2023-07-16T03:40:49;97619.16;;;19.36;96.34
19884;BME280;10104;50.732;10.174;2023-07-16T03:43:10;97610.78;;;19.32;97.11
19884;BME280;10104;50.732;10.174;2023-07-16T03:45:32;97627.28;;;19.41;96.53
19884;BME280;10104;50.732;10.174;2023-07-16T03:47:53;97636.16;;;19.42;96.08
19884;BME280;10104;50.732;10.174;2023-07-16T03:50:15;97630.06;;;19.46;96.62
19884;BME280;10104;50.732;10.174;2023-07-16T03:52:37;97625.16;;;19.43;96.67
19884;BME280;10104;50.732;10.174;2023-07-16T03:54:59;97640.78;;;19.46;96.19
19884;BME280;10104;50.732;10.174;2023-07-16T03:57:20;97640.94;;;19.39;96.05
19884;BME280;10104;50.732;10.174;2023-07-16T03:59:42;97644.59;;;19.28;95.34
19884;BME280;10104;50.732;10.174;2023-07-16T04:02:04;97644.88;;;19.32;95.60
19884;BME280;10104;50.732;10.174;2023-07-16T04:04:25;97658.88;;;19.34;94.51
19884;BME280;10104;50.732;10.174;2023-07-16T04:06:47;97664.31;;;19.17;92.56
19884;BME280;10104;50.732;10.174;2023-07-16T04:09:08;97661.13;;;19.20;93.80
19884;BME280;10104;50.732;10.174;2023-07-16T04:11:30;97666.25;;;19.22;93.33
19884;BME280;10104;50.732;10.174;2023-07-16T04:13:51;97655.19;;;19.18;93.35
19884;BME280;10104;50.732;10.174;2023-07-16T04:16:13;97660.75;;;19.50;91.41
19884;BME280;10104;50.732;10.174;2023-07-16T04:18:35;97659.09;;;19.49;91.08
19884;BME280;10104;50.732;10.174;2023-07-16T04:20:57;97667.31;;;19.43;91.13
19884;BME280;10104;50.732;10.174;2023-07-16T04:23:18;97670.25;;;19.19;91.76
19884;BME280;10104;50.732;10.174;2023-07-16T04:25:40;97674.63;;;19.25;91.73
19884;BME280;10104;50.732;10.174;2023-07-16T04:28:02;97676.00;;;19.28;92.12
19884;BME280;10104;50.732;10.174;2023-07-16T04:30:25;97685.53;;;19.19;91.79
19884;BME280;10104;50.732;10.174;2023-07-16T04:32:47;97676.69;;;19.40;91.17
19884;BME280;10104;50.732;10.174;2023-07-16T04:35:09;97675.13;;;19.44;89.61
19884;BME280;10104;50.732;10.174;2023-07-16T04:37:30;97675.78;;;19.73;88.41
19884;BME280;10104;50.732;10.174;2023-07-16T04:39:52;97679.75;;;19.70;87.62
19884;BME280;10104;50.732;10.174;2023-07-16T04:42:13;97687.25;;;19.90;85.72
19884;BME280;10104;50.732;10.174;2023-07-16T04:44:35;97690.81;;;19.52;85.35
19884;BME280;10104;50.732;10.174;2023-07-16T04:46:56;97693.03;;;19.55;86.39
19884;BME280;10104;50.732;10.174;2023-07-16T04:49:18;97686.38;;;19.63;86.43
19884;BME280;10104;50.732;10.174;2023-07-16T04:51:39;97699.88;;;19.90;85.38
19884;BME280;10104;50.732;10.174;2023-07-16T04:54:01;97698.66;;;20.02;85.40
19884;BME280;10104;50.732;10.174;2023-07-16T04:56:22;97700.53;;;20.29;82.68
19884;BME280;10104;50.732;10.174;2023-07-16T04:58:44;97718.34;;;20.08;81.38
19884;BME280;10104;50.732;10.174;2023-07-16T05:01:07;97715.44;;;20.14;81.78
19884;BME280;10104;50.732;10.174;2023-07-16T05:03:29;97707.41;;;20.41;80.89
19884;BME280;10104;50.732;10.174;2023-07-16T05:05:51;97717.41;;;20.46;79.87
19884;BME280;10104;50.732;10.174;2023-07-16T05:08:12;97718.91;;;20.37;80.48
19884;BME280;10104;50.732;10.174;2023-07-16T05:10:34;97727.69;;;20.27;80.45
19884;BME280;10104;50.732;10.174;2023-07-16T05:12:55;97735.13;;;20.42;80.61
19884;BME280;10104;50.732;10.174;2023-07-16T05:15:17;97734.50;;;20.35;81.13
19884;BME280;10104;50.732;10.174;2023-07-16T05:17:38;97739.53;;;20.31;81.33
19884;BME280;10104;50.732;10.174;2023-07-16T05:20:00;97743.03;;;20.32;82.47
19884;BME280;10104;50.732;10.174;2023-07-16T05:22:22;97756.19;;;20.28;82.43
19884;BME280;10104;50.732;10.174;2023-07-16T05:24:43;97758.53;;;20.19;81.47
19884;BME280;10104;50.732;10.174;2023-07-16T05:27:06;97758.53;;;20.19;81.79
19884;BME280;10104;50.732;10.174;2023-07-16T05:29:27;97756.97;;;20.02;81.22
19884;BME280;10104;50.732;10.174;2023-07-16T05:31:49;97769.78;;;20.16;79.78
19884;BME280;10104;50.732;10.174;2023-07-16T05:34:11;97773.44;;;20.05;82.19
19884;BME280;10104;50.732;10.174;2023-07-16T05:36:32;97774.78;;;20.30;80.92
19884;BME280;10104;50.732;10.174;2023-07-16T05:38:54;97774.84;;;20.13;81.43
19884;BME280;10104;50.732;10.174;2023-07-16T05:41:16;97785.06;;;20.33;81.49
19884;BME280;10104;50.732;10.174;2023-07-16T05:43:37;97774.50;;;20.53;80.37
19884;BME280;10104;50.732;10.174;2023-07-16T05:45:59;97784.38;;;20.42;79.52
19884;BME280;10104;50.732;10.174;2023-07-16T05:48:20;97772.81;;;19.98;80.57
19884;BME280;10104;50.732;10.174;2023-07-16T05:50:44;97781.31;;;20.34;79.81
19884;BME280;10104;50.732;10.174;2023-07-16T05:53:06;97783.69;;;20.57;78.20
19884;BME280;10104;50.732;10.174;2023-07-16T05:55:27;97785.09;;;20.65;77.40
19884;BME280;10104;50.732;10.174;2023-07-16T05:57:50;97789.22;;;20.45;79.88
19884;BME280;10104;50.732;10.174;2023-07-16T06:00:12;97790.31;;;20.49;81.36
19884;BME280;10104;50.732;10.174;2023-07-16T06:02:34;97788.59;;;20.65;80.28
19884;BME280;10104;50.732;10.174;2023-07-16T06:04:56;97801.16;;;20.54;78.44
19884;BME280;10104;50.732;10.174;2023-07-16T06:07:17;97792.19;;;20.22;77.11
19884;BME280;10104;50.732;10.174;2023-07-16T06:09:39;97794.22;;;20.37;78.43
19884;BME280;10104;50.732;10.174;2023-07-16T06:12:01;97789.97;;;20.41;78.36
19884;BME280;10104;50.732;10.174;2023-07-16T06:14:22;97794.84;;;20.44;78.49
19884;BME280;10104;50.732;10.174;2023-07-16T06:16:44;97799.22;;;20.50;78.06
19884;BME280;10104;50.732;10.174;2023-07-16T06:19:05;97802.31;;;20.64;72.66
19884;BME280;10104;50.732;10.174;2023-07-16T06:21:27;97804.59;;;20.50;73.15
19884;BME280;10104;50.732;10.174;2023-07-16T06:23:48;97793.56;;;20.03;75.18
19884;BME280;10104;50.732;10.174;2023-07-16T06:26:10;97799.06;;;20.35;72.95
19884;BME280;10104;50.732;10.174;2023-07-16T06:28:32;97802.09;;;20.43;74.63
19884;BME280;10104;50.732;10.174;2023-07-16T06:30:54;97812.16;;;20.53;74.25
19884;BME280;10104;50.732;10.174;2023-07-16T06:33:15;97813.06;;;20.37;72.44
19884;BME280;10104;50.732;10.174;2023-07-16T06:35:37;97819.81;;;20.39;71.51
19884;BME280;10104;50.732;10.174;2023-07-16T06:37:59;97817.81;;;20.51;68.14
19884;BME280;10104;50.732;10.174;2023-07-16T06:40:20;97811.25;;;20.69;69.36
19884;BME280;10104;50.732;10.174;2023-07-16T06:42:42;97808.47;;;20.59;69.19
19884;BME280;10104;50.732;10.174;2023-07-16T06:45:04;97809.06;;;20.66;72.40
19884;BME280;10104;50.732;10.174;2023-07-16T06:47:25;97817.88;;;20.62;72.16
19884;BME280;10104;50.732;10.174;2023-07-16T06:49:47;97811.56;;;20.46;67.38
19884;BME280;10104;50.732;10.174;2023-07-16T06:52:19;97814.25;;;20.46;67.11
19884;BME280;10104;50.732;10.174;2023-07-16T06:54:40;97816.09;;;20.67;69.66
19884;BME280;10104;50.732;10.174;2023-07-16T06:57:03;97817.00;;;20.78;64.36
19884;BME280;10104;50.732;10.174;2023-07-16T06:59:25;97821.69;;;20.92;65.95
19884;BME280;10104;50.732;10.174;2023-07-16T07:01:47;97803.19;;;21.01;61.09
19884;BME280;10104;50.732;10.174;2023-07-16T07:04:08;97820.63;;;21.25;62.38
19884;BME280;10104;50.732;10.174;2023-07-16T07:06:30;97822.28;;;21.26;60.97
19884;BME280;10104;50.732;10.174;2023-07-16T07:08:52;97810.56;;;21.11;61.52
19884;BME280;10104;50.732;10.174;2023-07-16T07:11:13;97805.06;;;21.32;59.57
19884;BME280;10104;50.732;10.174;2023-07-16T07:13:35;97815.13;;;21.10;60.25
19884;BME280;10104;50.732;10.174;2023-07-16T07:15:56;97805.84;;;20.96;58.85
19884;BME280;10104;50.732;10.174;2023-07-16T07:18:18;97819.75;;;20.88;60.27
19884;BME280;10104;50.732;10.174;2023-07-16T07:20:40;97819.16;;;21.13;60.35
19884;BME280;10104;50.732;10.174;2023-07-16T07:23:02;97801.31;;;21.02;58.07
19884;BME280;10104;50.732;10.174;2023-07-16T07:25:24;97823.50;;;21.46;59.69
19884;BME280;10104;50.732;10.174;2023-07-16T07:27:46;97820.75;;;21.88;56.34
19884;BME280;10104;50.732;10.174;2023-07-16T07:30:10;97802.59;;;22.15;55.46
19884;BME280;10104;50.732;10.174;2023-07-16T07:32:31;97811.53;;;22.26;56.91
19884;BME280;10104;50.732;10.174;2023-07-16T07:34:53;97809.13;;;22.39;57.17
19884;BME280;10104;50.732;10.174;2023-07-16T07:37:15;97814.38;;;21.99;54.74
19884;BME280;10104;50.732;10.174;2023-07-16T07:39:36;97814.56;;;21.92;56.84
19884;BME280;10104;50.732;10.174;2023-07-16T07:41:58;97819.94;;;21.82;56.74
19884;BME280;10104;50.732;10.174;2023-07-16T07:44:19;97832.63;;;21.87;57.29
19884;BME280;10104;50.732;10.174;2023-07-16T07:46:41;97826.13;;;21.83;57.42
19884;BME280;10104;50.732;10.174;2023-07-16T07:49:02;97829.38;;;21.85;56.22
19884;BME280;10104;50.732;10.174;2023-07-16T07:51:24;97831.19;;;21.74;57.34
19884;BME280;10104;50.732;10.174;2023-07-16T07:53:46;97840.59;;;21.66;56.33
19884;BME280;10104;50.732;10.174;2023-07-16T07:56:07;97837.16;;;21.76;56.31
19884;BME280;10104;50.732;10.174;2023-07-16T07:58:29;97846.66;;;21.47;56.64
19884;BME280;10104;50.732;10.174;2023-07-16T08:00:50;97845.63;;;21.53;56.22
19884;BME280;10104;50.732;10.174;2023-07-16T08:03:12;97846.88;;;21.35;56.42
19884;BME280;10104;50.732;10.174;2023-07-16T08:05:34;97850.09;;;21.37;55.14
19884;BME280;10104;50.732;10.174;2023-07-16T08:07:55;97853.72;;;21.53;54.29
19884;BME280;10104;50.732;10.174;2023-07-16T08:10:17;97854.22;;;21.50;53.81
19884;BME280;10104;50.732;10.174;2023-07-16T08:12:38;97855.78;;;21.41;55.35
19884;BME280;10104;50.732;10.174;2023-07-16T08:15:00;97846.53;;;21.31;54.30
19884;BME280;10104;50.732;10.174;2023-07-16T08:17:22;97852.56;;;21.44;54.76
19884;BME280;10104;50.732;10.174;2023-07-16T08:19:44;97844.38;;;21.65;54.71
19884;BME280;10104;50.732;10.174;2023-07-16T08:22:06;97852.97;;;21.62;53.63
19884;BME280;10104;50.732;10.174;2023-07-16T08:24:27;97853.22;;;21.61;54.55
19884;BME280;10104;50.732;10.174;2023-07-16T08:26:49;97855.31;;;21.91;54.90
19884;BME280;10104;50.732;10.174;2023-07-16T08:29:11;97851.47;;;21.82;53.50
19884;BME280;10104;50.732;10.174;2023-07-16T08:31:32;97846.03;;;22.29;54.25
19884;BME280;10104;50.732;10.174;2023-07-16T08:33:56;97840.94;;;22.27;50.71
19884;BME280;10104;50.732;10.174;2023-07-16T08:36:20;97850.44;;;22.50;50.80
19884;BME280;10104;50.732;10.174;2023-07-16T08:38:41;97850.72;;;22.48;49.63
19884;BME280;10104;50.732;10.174;2023-07-16T08:41:03;97849.38;;;22.56;50.75
19884;BME280;10104;50.732;10.174;2023-07-16T08:43:25;97839.19;;;22.73;50.79
19884;BME280;10104;50.732;10.174;2023-07-16T08:45:48;97846.25;;;22.89;50.36
19884;BME280;10104;50.732;10.174;2023-07-16T08:48:11;97847.88;;;23.11;49.17
19884;BME280;10104;50.732;10.174;2023-07-16T08:50:35;97842.50;;;23.51;49.14
19884;BME280;10104;50.732;10.174;2023-07-16T08:52:58;97851.13;;;23.53;49.57
19884;BME280;10104;50.732;10.174;2023-07-16T08:55:19;97869.81;;;23.50;48.16
19884;BME280;10104;50.732;10.174;2023-07-16T08:57:42;97851.66;;;23.60;49.03
19884;BME280;10104;50.732;10.174;2023-07-16T09:00:05;97850.78;;;23.95;46.56
19884;BME280;10104;50.732;10.174;2023-07-16T09:02:28;97846.47;;;23.89;46.64
19884;BME280;10104;50.732;10.174;2023-07-16T09:04:50;97863.44;;;24.20;46.27
19884;BME280;10104;50.732;10.174;2023-07-16T09:07:15;97862.84;;;24.33;44.44
19884;BME280;10104;50.732;10.174;2023-07-16T09:09:37;97866.34;;;24.44;46.74
19884;BME280;10104;50.732;10.174;2023-07-16T09:11:58;97870.53;;;23.96;45.71
19884;BME280;10104;50.732;10.174;2023-07-16T09:14:21;97871.16;;;23.62;47.21
19884;BME280;10104;50.732;10.174;2023-07-16T09:16:42;97879.50;;;23.46;47.49
19884;BME280;10104;50.732;10.174;2023-07-16T09:19:10;97868.16;;;23.08;47.39
19884;BME280;10104;50.732;10.174;2023-07-16T09:21:36;97864.88;;;22.91;48.25
19884;BME280;10104;50.732;10.174;2023-07-16T09:23:58;97864.91;;;23.06;48.38
19884;BME280;10104;50.732;10.174;2023-07-16T09:26:20;97870.59;;;23.30;48.40
19884;BME280;10104;50.732;10.174;2023-07-16T09:28:41;97872.44;;;23.09;48.98
19884;BME280;10104;50.732;10.174;2023-07-16T09:31:04;97878.16;;;23.13;48.43
19884;BME280;10104;50.732;10.174;2023-07-16T09:33:27;97870.03;;;23.08;47.55
19884;BME280;10104;50.732;10.174;2023-07-16T09:35:50;97877.03;;;22.88;47.20
19884;BME280;10104;50.732;10.174;2023-07-16T09:38:11;97883.81;;;23.01;47.39
19884;BME280;10104;50.732;10.174;2023-07-16T09:40:33;97881.38;;;22.99;47.44
19884;BME280;10104;50.732;10.174;2023-07-16T09:42:55;97877.06;;;23.29;46.22
19884;BME280;10104;50.732;10.174;2023-07-16T09:45:18;97878.66;;;23.86;45.23
19884;BME280;10104;50.732;10.174;2023-07-16T09:47:40;97885.09;;;24.10;43.61
19884;BME280;10104;50.732;10.174;2023-07-16T09:50:02;97875.25;;;24.49;42.55
19884;BME280;10104;50.732;10.174;2023-07-16T09:52:26;97869.06;;;24.34;42.80
19884;BME280;10104;50.732;10.174;2023-07-16T09:54:50;97884.22;;;24.40;41.87
19884;BME280;10104;50.732;10.174;2023-07-16T09:57:14;97887.00;;;24.25;42.27
19884;BME280;10104;50.732;10.174;2023-07-16T09:59:36;97905.34;;;24.33;39.80
19884;BME280;10104;50.732;10.174;2023-07-16T10:01:58;97882.38;;;24.20;41.65
19884;BME280;10104;50.732;10.174;2023-07-16T10:04:20;97896.06;;;24.54;41.98
19884;BME280;10104;50.732;10.174;2023-07-16T10:06:53;97876.06;;;24.50;40.63
19884;BME280;10104;50.732;10.174;2023-07-16T10:12:27;97879.88;;;24.98;41.57
19884;BME280;10104;50.732;10.174;2023-07-16T10:14:52;97876.50;;;25.16;40.87
19884;BME280;10104;50.732;10.174;2023-07-16T10:17:15;97873.31;;;25.38;40.00
19884;BME280;10104;50.732;10.174;2023-07-16T10:22:40;97866.34;;;26.61;38.24
19884;BME280;10104;50.732;10.174;2023-07-16T10:25:26;97861.94;;;26.89;37.89
19884;BME280;10104;50.732;10.174;2023-07-16T10:27:47;97869.09;;;27.17;36.20
19884;BME280;10104;50.732;10.174;2023-07-16T10:30:09;97867.97;;;27.56;37.18
19884;BME280;10104;50.732;10.174;2023-07-16T10:32:32;97871.22;;;27.39;36.46
19884;BME280;10104;50.732;10.174;2023-07-16T10:34:54;97869.19;;;27.63;36.64
19884;BME280;10104;50.732;10.174;2023-07-16T10:37:16;97871.22;;;27.39;34.97
19884;BME280;10104;50.732;10.174;2023-07-16T10:39:46;97865.41;;;27.92;35.53
19884;BME280;10104;50.732;10.174;2023-07-16T10:42:09;97862.97;;;27.90;33.91
19884;BME280;10104;50.732;10.174;2023-07-16T10:44:31;97863.28;;;28.02;32.96
19884;BME280;10104;50.732;10.174;2023-07-16T10:46:52;97843.44;;;28.43;33.29
19884;BME280;10104;50.732;10.174;2023-07-16T10:49:26;97870.19;;;28.13;33.76
19884;BME280;10104;50.732;10.174;2023-07-16T10:51:48;97859.78;;;28.15;34.59
19884;BME280;10104;50.732;10.174;2023-07-16T10:54:09;97866.09;;;27.84;34.02
19884;BME280;10104;50.732;10.174;2023-07-16T10:56:35;97855.34;;;28.33;33.92
19884;BME280;10104;50.732;10.174;2023-07-16T10:58:57;97885.41;;;28.55;33.56
19884;BME280;10104;50.732;10.174;2023-07-16T11:01:19;97882.41;;;28.43;34.11
19884;BME280;10104;50.732;10.174;2023-07-16T11:03:41;97865.34;;;28.24;34.15
19884;BME280;10104;50.732;10.174;2023-07-16T11:06:08;97876.25;;;28.51;32.70
19884;BME280;10104;50.732;10.174;2023-07-16T11:08:29;97877.66;;;28.35;34.70
19884;BME280;10104;50.732;10.174;2023-07-16T11:10:57;97873.81;;;28.64;34.11
19884;BME280;10104;50.732;10.174;2023-07-16T11:13:19;97867.19;;;28.92;33.05
19884;BME280;10104;50.732;10.174;2023-07-16T11:15:41;97865.19;;;28.84;33.34
19884;BME280;10104;50.732;10.174;2023-07-16T11:18:02;97867.16;;;28.56;33.77
19884;BME280;10104;50.732;10.174;2023-07-16T11:20:24;97858.22;;;28.64;34.32
19884;BME280;10104;50.732;10.174;2023-07-16T11:22:46;97859.09;;;28.37;32.17
19884;BME280;10104;50.732;10.174;2023-07-16T11:25:12;97860.25;;;28.86;32.56
19884;BME280;10104;50.732;10.174;2023-07-16T11:27:34;97863.69;;;28.64;32.47
19884;BME280;10104;50.732;10.174;2023-07-16T11:29:57;97869.34;;;29.17;32.66
19884;BME280;10104;50.732;10.174;2023-07-16T11:32:49;97860.34;;;28.94;32.24
19884;BME280;10104;50.732;10.174;2023-07-16T11:35:16;97865.94;;;28.76;32.96
19884;BME280;10104;50.732;10.174;2023-07-16T11:37:38;97874.41;;;28.88;32.98
19884;BME280;10104;50.732;10.174;2023-07-16T11:42:39;97868.84;;;28.66;33.06
19884;BME280;10104;50.732;10.174;2023-07-16T11:45:03;97862.69;;;28.60;33.12
19884;BME280;10104;50.732;10.174;2023-07-16T11:47:25;97868.16;;;27.59;33.96
19884;BME280;10104;50.732;10.174;2023-07-16T11:49:48;97868.50;;;27.39;34.19
19884;BME280;10104;50.732;10.174;2023-07-16T11:52:09;97849.75;;;27.84;33.96
19884;BME280;10104;50.732;10.174;2023-07-16T11:54:31;97860.81;;;28.20;34.41
19884;BME280;10104;50.732;10.174;2023-07-16T11:56:52;97853.13;;;28.08;33.54
19884;BME280;10104;50.732;10.174;2023-07-16T11:59:16;97861.22;;;27.67;34.05
19884;BME280;10104;50.732;10.174;2023-07-16T12:01:41;97858.75;;;28.11;33.31
19884;BME280;10104;50.732;10.174;2023-07-16T12:04:03;97851.78;;;29.32;32.40
19884;BME280;10104;50.732;10.174;2023-07-16T12:06:24;97856.50;;;30.24;30.86
19884;BME280;10104;50.732;10.174;2023-07-16T12:08:46;97849.31;;;30.45;29.61
19884;BME280;10104;50.732;10.174;2023-07-16T12:11:07;97864.50;;;30.60;29.07
19884;BME280;10104;50.732;10.174;2023-07-16T12:13:29;97865.03;;;31.05;28.90
19884;BME280;10104;50.732;10.174;2023-07-16T12:15:51;97852.97;;;30.32;29.65
19884;BME280;10104;50.732;10.174;2023-07-16T12:18:12;97854.88;;;32.21;29.11
19884;BME280;10104;50.732;10.174;2023-07-16T12:20:35;97858.16;;;30.42;29.22
19884;BME280;10104;50.732;10.174;2023-07-16T12:22:57;97847.97;;;31.60;29.56
19884;BME280;10104;50.732;10.174;2023-07-16T12:25:19;97849.31;;;31.11;29.65
19884;BME280;10104;50.732;10.174;2023-07-16T12:27:41;97850.41;;;31.27;28.81
19884;BME280;10104;50.732;10.174;2023-07-16T12:30:03;97852.03;;;32.00;28.34
19884;BME280;10104;50.732;10.174;2023-07-16T12:32:25;97849.09;;;32.05;29.23
19884;BME280;10104;50.732;10.174;2023-07-16T12:34:46;97841.16;;;33.01;27.47
19884;BME280;10104;50.732;10.174;2023-07-16T12:37:08;97851.28;;;32.59;26.94
19884;BME280;10104;50.732;10.174;2023-07-16T12:39:30;97861.44;;;31.82;27.86
19884;BME280;10104;50.732;10.174;2023-07-16T12:41:51;97861.63;;;30.82;28.06
19884;BME280;10104;50.732;10.174;2023-07-16T12:44:13;97849.41;;;30.88;29.55